createdAt,value
2023-02-07T00:01:22.161Z,48.50
2023-02-07T00:03:50.651Z,48.60
2023-02-07T00:06:22.146Z,48.60
2023-02-07T00:08:50.539Z,48.60
2023-02-07T00:11:21.230Z,48.50
2023-02-07T00:13:51.989Z,48.60
2023-02-07T00:16:20.999Z,48.70
2023-02-07T00:18:49.419Z,48.70
2023-02-07T00:21:20.027Z,48.60
2023-02-07T00:23:48.532Z,48.70
2023-02-07T00:26:18.014Z,48.80
2023-02-07T00:28:48.822Z,48.70
2023-02-07T00:31:20.667Z,48.80
2023-02-07T00:33:50.227Z,48.80
2023-02-07T00:36:20.404Z,48.90
2023-02-07T00:38:49.145Z,49.00
2023-02-07T00:41:18.682Z,49.00
2023-02-07T00:43:49.246Z,49.00
2023-02-07T00:46:18.073Z,49.00
2023-02-07T00:48:46.637Z,49.00
2023-02-07T00:51:15.433Z,49.10
2023-02-07T00:53:47.684Z,49.10
2023-02-07T00:56:16.153Z,49.00
2023-02-07T00:58:44.260Z,49.00
2023-02-07T01:01:13.700Z,49.00
2023-02-07T01:03:42.355Z,49.00
2023-02-07T01:06:11.217Z,49.00
2023-02-07T01:08:39.509Z,49.10
2023-02-07T01:11:11.903Z,49.20
2023-02-07T01:13:43.211Z,49.10
2023-02-07T01:16:20.672Z,49.10
2023-02-07T01:18:49.079Z,49.20
2023-02-07T01:21:18.813Z,49.20
2023-02-07T01:23:47.136Z,49.30
2023-02-07T01:26:15.039Z,49.30
2023-02-07T01:28:43.186Z,49.40
2023-02-07T01:31:15.060Z,49.50
2023-02-07T01:33:44.837Z,49.50
2023-02-07T01:36:15.388Z,49.50
2023-02-07T01:38:44.076Z,49.50
2023-02-07T01:41:14.406Z,49.60
2023-02-07T01:43:59.888Z,49.60
2023-02-07T01:46:29.531Z,49.60
2023-02-07T01:49:03.317Z,49.50
2023-02-07T01:51:33.590Z,49.50
2023-02-07T01:54:05.744Z,49.40
2023-02-07T01:56:35.091Z,49.40
2023-02-07T01:59:06.644Z,49.30
2023-02-07T02:01:35.723Z,49.20
2023-02-07T02:04:05.459Z,49.20
2023-02-07T02:06:34.785Z,49.20
2023-02-07T02:09:09.369Z,49.10
2023-02-07T02:12:01.571Z,49.10
2023-02-07T02:14:44.984Z,49.30
2023-02-07T02:17:24.851Z,49.20
2023-02-07T02:20:37.132Z,49.20
2023-02-07T02:23:24.564Z,49.20
2023-02-07T02:26:20.023Z,49.70
2023-02-07T02:29:39.926Z,49.20
2023-02-07T02:32:34.934Z,49.30
2023-02-07T02:35:13.551Z,49.20
2023-02-07T02:37:48.892Z,49.10
2023-02-07T02:40:24.453Z,49.20
2023-02-07T02:42:59.966Z,49.20
2023-02-07T02:45:33.534Z,49.20
2023-02-07T02:48:05.711Z,49.20
2023-02-07T02:50:35.954Z,49.30
2023-02-07T02:53:04.457Z,49.30
2023-02-07T02:56:07.357Z,49.20
2023-02-07T02:58:46.776Z,49.40
2023-02-07T03:01:24.576Z,49.30
2023-02-07T03:04:09.016Z,49.30
2023-02-07T03:06:52.741Z,49.40
2023-02-07T03:09:31.010Z,49.40
2023-02-07T03:12:10.855Z,49.40
2023-02-07T03:14:46.931Z,49.40
2023-02-07T03:17:22.259Z,49.40
2023-02-07T03:19:59.650Z,49.50
2023-02-07T03:22:30.054Z,49.50
2023-02-07T03:25:01.687Z,49.50
2023-02-07T03:27:32.589Z,49.50
2023-02-07T03:30:04.977Z,49.60
2023-02-07T03:32:37.745Z,49.60
2023-02-07T03:35:12.371Z,49.60
2023-02-07T03:37:43.775Z,49.70
2023-02-07T03:40:13.426Z,49.70
2023-02-07T03:42:44.425Z,49.70
2023-02-07T03:45:15.511Z,49.70
2023-02-07T03:47:43.896Z,49.70
2023-02-07T03:50:14.024Z,50.10
2023-02-07T03:52:42.173Z,49.70
2023-02-07T03:55:10.452Z,49.80
2023-02-07T03:57:39.150Z,49.70
2023-02-07T04:00:08.589Z,49.70
2023-02-07T04:02:44.402Z,49.70
2023-02-07T04:05:13.671Z,49.70
2023-02-07T04:07:41.662Z,49.80
2023-02-07T04:10:11.066Z,49.90
2023-02-07T04:12:39.097Z,49.90
2023-02-07T04:15:08.930Z,49.90
2023-02-07T04:17:37.414Z,49.90
2023-02-07T04:20:06.270Z,49.90
2023-02-07T04:22:35.532Z,49.90
2023-02-07T04:25:03.563Z,49.90
2023-02-07T04:27:31.734Z,50.00
2023-02-07T04:29:59.905Z,50.00
2023-02-07T04:32:27.857Z,50.00
2023-02-07T04:34:55.889Z,50.00
2023-02-07T04:37:23.794Z,50.00
2023-02-07T04:39:53.280Z,50.00
2023-02-07T04:42:21.271Z,50.00
2023-02-07T04:44:49.655Z,49.90
2023-02-07T04:47:17.600Z,49.90
2023-02-07T04:49:45.754Z,50.00
2023-02-07T04:52:13.725Z,50.00
2023-02-07T04:54:42.102Z,50.00
2023-02-07T04:57:11.347Z,50.00
2023-02-07T04:59:39.394Z,50.10
2023-02-07T05:02:07.811Z,50.10
2023-02-07T05:04:35.841Z,50.10
2023-02-07T05:07:07.054Z,50.10
2023-02-07T05:09:34.952Z,50.20
2023-02-07T05:12:03.011Z,50.20
2023-02-07T05:14:32.335Z,50.20
2023-02-07T05:17:00.480Z,50.30
2023-02-07T05:19:28.453Z,50.30
2023-02-07T05:21:56.612Z,50.30
2023-02-07T05:24:24.472Z,50.20
2023-02-07T05:26:52.687Z,50.20
2023-02-07T05:29:20.650Z,50.20
2023-02-07T05:32:18.857Z,50.30
2023-02-07T05:34:47.388Z,50.30
2023-02-07T05:37:15.311Z,50.30
2023-02-07T05:39:43.401Z,50.30
2023-02-07T05:42:11.394Z,50.30
2023-02-07T05:44:39.421Z,50.30
2023-02-07T05:47:08.799Z,50.40
2023-02-07T05:49:37.395Z,50.40
2023-02-07T05:52:06.118Z,50.50
2023-02-07T05:54:34.090Z,50.50
2023-02-07T05:57:02.242Z,50.50
2023-02-07T05:59:30.313Z,50.50
2023-02-07T06:01:58.410Z,50.60
2023-02-07T06:04:28.177Z,50.50
2023-02-07T06:06:56.446Z,50.50
2023-02-07T06:09:24.407Z,50.50
2023-02-07T06:11:52.623Z,50.40
2023-02-07T06:14:20.571Z,50.50
2023-02-07T06:16:48.743Z,50.50
2023-02-07T06:19:16.897Z,50.50
2023-02-07T06:21:47.074Z,50.50
2023-02-07T06:24:17.757Z,50.50
2023-02-07T06:26:47.062Z,50.50
2023-02-07T06:29:15.427Z,50.50
2023-02-07T06:31:43.727Z,50.50
2023-02-07T06:34:11.626Z,50.50
2023-02-07T06:36:39.684Z,50.50
2023-02-07T06:39:09.320Z,50.50
2023-02-07T06:41:37.543Z,50.60
2023-02-07T06:44:06.021Z,50.70
2023-02-07T06:46:33.984Z,50.70
2023-02-07T06:49:02.111Z,50.80
2023-02-07T06:51:30.242Z,50.80
2023-02-07T06:53:59.795Z,50.80
2023-02-07T06:56:29.327Z,50.80
2023-02-07T06:58:57.200Z,50.80
2023-02-07T07:01:25.227Z,50.80
2023-02-07T07:03:53.368Z,50.80
2023-02-07T07:06:22.985Z,50.80
2023-02-07T07:08:51.903Z,50.90
2023-02-07T07:11:20.046Z,50.80
2023-02-07T07:13:49.325Z,50.80
2023-02-07T07:16:17.402Z,50.80
2023-02-07T07:18:45.499Z,50.80
2023-02-07T07:21:13.588Z,50.90
2023-02-07T07:23:41.714Z,50.90
2023-02-07T07:26:09.796Z,51.00
2023-02-07T07:28:37.728Z,51.10
2023-02-07T07:31:09.340Z,51.10
2023-02-07T07:33:37.687Z,51.20
2023-02-07T07:36:08.796Z,51.30
2023-02-07T07:41:11.212Z,51.30
2023-02-07T07:43:39.368Z,51.40
2023-02-07T07:46:08.887Z,51.40
2023-02-07T07:48:37.350Z,51.50
2023-02-07T07:51:06.118Z,51.50
2023-02-07T07:53:34.172Z,51.50
2023-02-07T07:56:02.263Z,51.60
2023-02-07T07:58:30.462Z,51.60
2023-02-07T08:00:58.690Z,51.70
2023-02-07T08:03:28.147Z,51.70
2023-02-07T08:05:56.509Z,51.70
2023-02-07T08:08:24.473Z,51.80
2023-02-07T08:10:54.130Z,51.90
2023-02-07T08:13:22.602Z,51.90
2023-02-07T08:15:50.787Z,51.90
2023-02-07T08:18:18.713Z,52.00
2023-02-07T08:20:50.082Z,52.00
2023-02-07T08:23:18.092Z,52.10
2023-02-07T08:25:46.952Z,52.20
2023-02-07T08:28:15.455Z,52.40
2023-02-07T08:30:43.714Z,52.30
2023-02-07T08:33:12.198Z,52.20
2023-02-07T08:35:40.387Z,52.20
2023-02-07T08:38:09.662Z,52.20
2023-02-07T08:40:38.176Z,52.30
2023-02-07T08:43:12.052Z,52.30
2023-02-07T08:45:40.347Z,52.70
2023-02-07T08:48:08.369Z,52.30
2023-02-07T08:50:36.632Z,52.30
2023-02-07T08:53:05.271Z,52.30
2023-02-07T08:55:34.629Z,52.40
2023-02-07T08:58:02.654Z,52.40
2023-02-07T09:00:31.227Z,52.40
2023-02-07T09:02:59.400Z,52.50
2023-02-07T09:05:27.290Z,52.50
2023-02-07T09:07:55.600Z,52.60
2023-02-07T09:10:23.632Z,52.90
2023-02-07T09:12:52.923Z,53.90
2023-02-07T09:15:21.295Z,55.10
2023-02-07T09:17:49.322Z,56.40
2023-02-07T09:20:18.315Z,57.40
2023-02-07T09:23:03.894Z,57.80
2023-02-07T09:25:32.069Z,58.00
2023-02-07T09:28:01.459Z,57.90
2023-02-07T09:30:29.473Z,57.00
2023-02-07T09:32:58.797Z,55.40
2023-02-07T09:35:26.972Z,54.50
2023-02-07T09:37:55.103Z,54.60
2023-02-07T09:40:24.322Z,54.40
2023-02-07T09:42:58.052Z,53.90
2023-02-07T09:45:32.651Z,52.40
2023-02-07T09:48:05.439Z,51.40
2023-02-07T09:50:39.344Z,51.00
2023-02-07T09:53:16.842Z,49.80
2023-02-07T09:55:48.535Z,49.00
2023-02-07T09:58:19.955Z,48.50
2023-02-07T10:01:00.956Z,47.70
2023-02-07T10:03:29.642Z,45.40
2023-02-07T10:06:12.579Z,46.60
2023-02-07T10:08:46.461Z,45.30
2023-02-07T10:11:20.591Z,44.90
2023-02-07T10:14:04.024Z,42.90
2023-02-07T10:16:48.499Z,40.30
2023-02-07T10:19:29.586Z,38.60
2023-02-07T10:22:07.721Z,38.60
2023-02-07T10:24:56.108Z,38.10
2023-02-07T10:27:30.747Z,37.00
2023-02-07T10:30:05.688Z,37.30
2023-02-07T10:32:39.045Z,37.30
2023-02-07T10:35:17.745Z,38.20
2023-02-07T10:37:47.920Z,38.50
2023-02-07T10:40:20.027Z,40.00
2023-02-07T10:42:51.555Z,40.20
2023-02-07T10:45:19.730Z,40.40
2023-02-07T10:47:49.156Z,40.30
2023-02-07T10:50:29.412Z,39.80
2023-02-07T10:53:00.021Z,39.30
2023-02-07T10:55:42.925Z,39.00
2023-02-07T10:58:23.221Z,36.50
2023-02-07T11:00:53.643Z,36.80
2023-02-07T11:03:24.502Z,37.30
2023-02-07T11:05:58.197Z,36.40
2023-02-07T11:08:28.458Z,35.90
2023-02-07T11:10:58.588Z,35.60
2023-02-07T11:13:29.609Z,35.30
2023-02-07T11:16:01.149Z,34.60
2023-02-07T11:18:44.808Z,34.00
2023-02-07T11:21:30.417Z,32.60
2023-02-07T11:24:06.038Z,32.50
2023-02-07T11:26:35.723Z,33.00
2023-02-07T11:29:08.021Z,33.10
2023-02-07T11:31:38.545Z,32.20
2023-02-07T11:34:30.247Z,32.00
2023-02-07T11:37:12.962Z,30.50
2023-02-07T11:39:42.120Z,30.30
2023-02-07T11:42:14.095Z,32.10
2023-02-07T11:44:44.320Z,30.60
2023-02-07T11:47:16.241Z,30.90
2023-02-07T11:49:50.784Z,30.20
2023-02-07T11:52:18.932Z,29.70
2023-02-07T11:54:53.207Z,30.10
2023-02-07T11:57:23.308Z,29.40
2023-02-07T12:00:01.588Z,29.70
2023-02-07T12:02:31.188Z,29.20
2023-02-07T12:05:15.335Z,29.40
2023-02-07T12:07:46.211Z,28.40
2023-02-07T12:10:21.744Z,28.90
2023-02-07T12:12:55.051Z,28.70
2023-02-07T12:15:27.328Z,28.60
2023-02-07T12:18:02.448Z,28.50
2023-02-07T12:20:36.576Z,28.00
2023-02-07T12:23:39.615Z,27.80
2023-02-07T12:26:06.771Z,27.80
2023-02-07T12:28:41.199Z,28.00
2023-02-07T12:31:20.413Z,27.60
2023-02-07T12:33:54.134Z,27.10
2023-02-07T12:36:30.829Z,27.40
2023-02-07T12:39:04.006Z,27.20
2023-02-07T12:41:38.461Z,27.20
2023-02-07T12:44:24.610Z,27.20
2023-02-07T12:47:01.551Z,27.00
2023-02-07T12:49:50.582Z,26.80
2023-02-07T12:52:30.740Z,26.40
2023-02-07T12:55:12.546Z,26.60
2023-02-07T12:57:47.210Z,26.60
2023-02-07T13:00:23.848Z,26.60
2023-02-07T13:03:05.906Z,26.60
2023-02-07T13:05:51.182Z,26.20
2023-02-07T13:08:30.640Z,26.20
2023-02-07T13:11:09.793Z,26.20
2023-02-07T13:13:47.461Z,26.10
2023-02-07T13:16:20.794Z,26.10
2023-02-07T13:18:57.307Z,26.20
2023-02-07T13:21:32.762Z,26.20
2023-02-07T13:24:05.935Z,26.20
2023-02-07T13:26:36.954Z,26.10
2023-02-07T13:29:08.099Z,26.10
2023-02-07T13:31:41.744Z,26.00
2023-02-07T13:34:16.242Z,25.80
2023-02-07T13:36:45.991Z,25.80
2023-02-07T13:39:27.548Z,25.90
2023-02-07T13:42:09.998Z,25.40
2023-02-07T13:44:46.660Z,25.50
2023-02-07T13:47:34.467Z,25.60
2023-02-07T13:50:13.848Z,25.20
2023-02-07T13:52:50.501Z,25.50
2023-02-07T13:55:28.319Z,25.30
2023-02-07T13:58:13.868Z,25.10
2023-02-07T14:01:01.674Z,25.60
2023-02-07T14:03:31.959Z,24.90
2023-02-07T14:06:17.540Z,25.50
2023-02-07T14:08:46.258Z,24.90
2023-02-07T14:11:29.799Z,25.30
2023-02-07T14:14:06.370Z,24.90
2023-02-07T14:16:47.838Z,24.90
2023-02-07T14:19:17.851Z,25.20
2023-02-07T14:21:45.970Z,25.20
2023-02-07T14:24:37.929Z,25.20
2023-02-07T14:27:29.275Z,24.70
2023-02-07T14:30:25.571Z,24.60
2023-02-07T14:33:14.402Z,25.20
2023-02-07T14:36:07.085Z,24.90
2023-02-07T14:38:38.345Z,24.90
2023-02-07T14:41:11.683Z,25.20
2023-02-07T14:44:07.550Z,25.10
2023-02-07T14:46:42.857Z,24.70
2023-02-07T14:49:17.045Z,25.10
2023-02-07T14:51:47.978Z,25.00
2023-02-07T14:54:24.454Z,25.10
2023-02-07T14:57:05.740Z,24.90
2023-02-07T14:59:39.844Z,24.80
2023-02-07T15:02:31.940Z,25.00
2023-02-07T15:05:16.169Z,24.80
2023-02-07T15:07:46.977Z,25.10
2023-02-07T15:10:16.476Z,25.10
2023-02-07T15:12:44.816Z,25.00
2023-02-07T15:15:21.483Z,24.90
2023-02-07T15:17:51.333Z,24.60
2023-02-07T15:20:21.581Z,24.80
2023-02-07T15:22:50.955Z,24.90
2023-02-07T15:25:19.262Z,24.90
2023-02-07T15:28:00.563Z,25.00
2023-02-07T15:30:31.111Z,25.00
2023-02-07T15:32:59.838Z,25.20
2023-02-07T15:35:29.455Z,25.30
2023-02-07T15:38:16.382Z,25.40
2023-02-07T15:40:44.694Z,25.40
2023-02-07T15:43:26.500Z,25.60
2023-02-07T15:46:09.607Z,25.90
2023-02-07T15:48:49.843Z,25.60
2023-02-07T15:51:20.531Z,25.70
2023-02-07T15:53:51.970Z,25.70
2023-02-07T15:56:20.402Z,25.90
2023-02-07T15:58:49.634Z,26.00
2023-02-07T16:01:34.016Z,26.30
2023-02-07T16:04:05.075Z,26.30
2023-02-07T16:06:33.736Z,26.40
2023-02-07T16:09:03.161Z,26.60
2023-02-07T16:11:40.966Z,26.70
2023-02-07T16:14:20.986Z,26.90
2023-02-07T16:16:53.037Z,27.00
2023-02-07T16:19:26.072Z,27.10
2023-02-07T16:22:01.061Z,27.10
2023-02-07T16:24:29.053Z,27.30
2023-02-07T16:26:59.184Z,27.40
2023-02-07T16:29:28.227Z,27.60
2023-02-07T16:31:57.914Z,27.70
2023-02-07T16:34:25.968Z,27.90
2023-02-07T16:36:55.633Z,27.90
2023-02-07T16:39:24.321Z,28.00
2023-02-07T16:41:57.051Z,28.10
2023-02-07T16:44:26.533Z,28.30
2023-02-07T16:46:54.525Z,28.40
2023-02-07T16:49:26.427Z,28.50
2023-02-07T16:51:54.596Z,28.60
2023-02-07T16:54:22.941Z,28.70
2023-02-07T16:56:54.335Z,28.70
2023-02-07T16:59:24.014Z,28.80
2023-02-07T17:01:54.743Z,28.80
2023-02-07T17:04:24.336Z,28.90
2023-02-07T17:06:52.370Z,29.00
2023-02-07T17:09:22.553Z,29.10
2023-02-07T17:11:51.013Z,29.20
2023-02-07T17:14:19.251Z,29.20
2023-02-07T17:16:47.684Z,29.40
2023-02-07T17:19:18.375Z,29.50
2023-02-07T17:21:48.446Z,29.70
2023-02-07T17:24:16.987Z,29.80
2023-02-07T17:26:48.488Z,29.80
2023-02-07T17:29:18.102Z,30.00
2023-02-07T17:31:47.460Z,30.00
2023-02-07T17:34:15.974Z,30.10
2023-02-07T17:36:48.524Z,30.20
2023-02-07T17:39:17.617Z,30.30
2023-02-07T17:41:45.709Z,30.30
2023-02-07T17:44:13.780Z,30.30
2023-02-07T17:46:41.717Z,30.30
2023-02-07T17:49:14.912Z,30.40
2023-02-07T17:51:42.771Z,30.60
2023-02-07T17:54:12.169Z,30.60
2023-02-07T17:56:40.062Z,30.90
2023-02-07T17:59:10.134Z,30.90
2023-02-07T18:01:38.023Z,31.10
2023-02-07T18:04:06.473Z,31.10
2023-02-07T18:06:34.412Z,31.20
2023-02-07T18:09:02.682Z,31.30
2023-02-07T18:11:32.732Z,31.40
2023-02-07T18:14:01.812Z,31.90
2023-02-07T18:16:30.155Z,31.50
2023-02-07T18:18:58.267Z,31.60
2023-02-07T18:21:27.697Z,31.80
2023-02-07T18:23:56.460Z,31.90
2023-02-07T18:26:24.629Z,31.80
2023-02-07T18:28:54.054Z,31.80
2023-02-07T18:31:24.450Z,31.90
2023-02-07T18:33:54.078Z,32.00
2023-02-07T18:36:23.327Z,32.10
2023-02-07T18:38:51.793Z,32.30
2023-02-07T18:41:23.203Z,32.40
2023-02-07T18:43:53.216Z,32.60
2023-02-07T18:46:22.512Z,32.60
2023-02-07T18:48:55.167Z,32.70
2023-02-07T18:51:23.956Z,32.90
2023-02-07T18:53:54.445Z,32.80
2023-02-07T18:56:24.578Z,32.90
2023-02-07T18:58:56.515Z,33.00
2023-02-07T19:01:26.402Z,33.10
2023-02-07T19:03:56.242Z,33.20
2023-02-07T19:06:27.578Z,33.30
2023-02-07T19:08:56.030Z,33.30
2023-02-07T19:11:24.536Z,33.40
2023-02-07T19:13:54.794Z,33.50
2023-02-07T19:16:24.337Z,33.60
2023-02-07T19:18:52.315Z,33.60
2023-02-07T19:21:26.936Z,33.70
2023-02-07T19:23:55.810Z,33.80
2023-02-07T19:26:24.473Z,33.90
2023-02-07T19:28:54.382Z,33.90
2023-02-07T19:31:24.493Z,34.00
2023-02-07T19:33:53.397Z,34.10
2023-02-07T19:36:23.075Z,34.20
2023-02-07T19:38:53.952Z,34.20
2023-02-07T19:41:22.465Z,34.30
2023-02-07T19:43:50.447Z,34.30
2023-02-07T19:46:21.936Z,34.30
2023-02-07T19:48:50.529Z,34.50
2023-02-07T19:51:20.135Z,34.50
2023-02-07T19:53:49.898Z,34.60
2023-02-07T19:56:19.931Z,34.70
2023-02-07T19:58:49.945Z,34.80
2023-02-07T20:01:18.588Z,34.90
2023-02-07T20:03:51.588Z,34.90
2023-02-07T20:06:22.475Z,35.00
2023-02-07T20:08:50.835Z,34.90
2023-02-07T20:11:20.629Z,35.00
2023-02-07T20:13:51.510Z,35.20
2023-02-07T20:16:22.576Z,35.20
2023-02-07T20:18:52.912Z,35.40
2023-02-07T20:21:22.996Z,35.40
2023-02-07T20:23:51.617Z,35.50
2023-02-07T20:26:22.832Z,35.50
2023-02-07T20:28:51.199Z,35.50
2023-02-07T20:31:22.215Z,35.60
2023-02-07T20:33:51.899Z,35.70
2023-02-07T20:36:21.444Z,35.70
2023-02-07T20:38:49.702Z,35.70
2023-02-07T20:41:28.943Z,35.70
2023-02-07T20:44:00.028Z,35.80
2023-02-07T20:46:29.298Z,35.90
2023-02-07T20:49:00.344Z,35.80
2023-02-07T20:51:29.090Z,36.00
2023-02-07T20:53:58.328Z,36.00
2023-02-07T20:56:27.412Z,36.00
2023-02-07T20:58:57.821Z,36.10
2023-02-07T21:01:28.763Z,36.10
2023-02-07T21:04:00.296Z,36.20
2023-02-07T21:06:29.370Z,36.20
2023-02-07T21:09:00.844Z,36.30
2023-02-07T21:11:33.851Z,36.30
2023-02-07T21:14:01.877Z,36.40
2023-02-07T21:16:30.797Z,36.50
2023-02-07T21:19:00.626Z,36.60
2023-02-07T21:21:29.152Z,36.70
2023-02-07T21:23:57.102Z,36.80
2023-02-07T21:26:26.567Z,36.80
2023-02-07T21:28:58.358Z,36.80
2023-02-07T21:31:27.413Z,36.90
2023-02-07T21:33:55.417Z,37.00
2023-02-07T21:36:26.531Z,37.00
2023-02-07T21:38:56.153Z,37.10
2023-02-07T21:41:27.067Z,37.20
2023-02-07T21:43:55.649Z,37.20
2023-02-07T21:46:25.771Z,37.20
2023-02-07T21:48:58.551Z,37.30
2023-02-07T21:51:29.119Z,37.30
2023-02-07T21:53:57.995Z,37.40
2023-02-07T21:56:28.747Z,37.50
2023-02-07T21:58:58.186Z,37.60
2023-02-07T22:01:27.222Z,37.60
2023-02-07T22:03:57.214Z,37.70
2023-02-07T22:06:27.642Z,37.70
2023-02-07T22:08:57.369Z,37.70
2023-02-07T22:11:27.691Z,37.70
2023-02-07T22:13:56.069Z,37.80
2023-02-07T22:16:26.126Z,37.80
2023-02-07T22:18:55.893Z,37.90
2023-02-07T22:21:25.754Z,38.10
2023-02-07T22:23:55.929Z,38.00
2023-02-07T22:26:24.380Z,38.10
2023-02-07T22:28:52.515Z,38.10
2023-02-07T22:31:23.824Z,38.10
2023-02-07T22:33:53.482Z,38.10
2023-02-07T22:36:23.545Z,38.10
2023-02-07T22:38:52.228Z,38.20
2023-02-07T22:41:22.390Z,38.20
2023-02-07T22:43:50.960Z,38.30
2023-02-07T22:46:21.966Z,38.40
2023-02-07T22:48:53.288Z,38.40
2023-02-07T22:51:23.360Z,38.40
2023-02-07T22:53:54.643Z,38.40
2023-02-07T22:56:25.185Z,39.00
2023-02-07T22:58:53.554Z,38.60
2023-02-07T23:01:24.344Z,38.60
2023-02-07T23:03:53.310Z,38.60
2023-02-07T23:06:22.327Z,38.70
2023-02-07T23:08:50.695Z,38.70
2023-02-07T23:11:20.408Z,38.80
2023-02-07T23:13:50.850Z,38.90
2023-02-07T23:16:20.657Z,38.90
2023-02-07T23:18:50.047Z,39.00
2023-02-07T23:21:20.078Z,39.00
2023-02-07T23:23:48.927Z,39.00
2023-02-07T23:26:18.487Z,39.00
2023-02-07T23:28:47.170Z,39.20
2023-02-07T23:31:18.299Z,39.20
2023-02-07T23:33:46.847Z,39.20
2023-02-07T23:36:17.585Z,39.20
2023-02-07T23:38:46.362Z,39.30
2023-02-07T23:41:14.881Z,39.30
2023-02-07T23:43:43.081Z,39.30
2023-02-07T23:46:11.632Z,39.40
2023-02-07T23:48:41.178Z,39.50
2023-02-07T23:51:09.475Z,39.50
2023-02-07T23:53:37.704Z,39.50
2023-02-07T23:56:07.231Z,39.60
2023-02-07T23:58:35.970Z,39.60
